»·PEaware :: N16RD KLAX-KSNA

N16RD :: KLAX-KSNA

FLIGHT INFORMATION

Flight Status: Arrived
Operator: Privately registered:
United States
More flights under this callsign
Pilot: Brett B. (12105)
Aircraft: CESSNA 172 SKYHAWK
(C172)
More flights by this aircraft type
Origin: KLAX Los Angeles Intl
United States
Destination: KSNA John Wayne-Orange Co
United States
More flights between these airports :: More routes between these airports
Route: +SLI8 SLI
File this flight plan on PilotEdge
Remarks: I-6 Test
Altitude:
(Current/Filed)
4,000ft
Speed:
(Current/Filed)
135kts
Departed: 23-Oct-17 07:12 PM
Arrived: 23-Oct-17 08:08 PM
Distance/Time
Traveled:
31nm/0:55
Distance/Time
To Go:
Arrived

Flight Plot

Page will automatically refresh every two minutes.

Flight plan parsing failed; only flown route is shown


Map Options




Map Legend


Flown Route
Filed Route
Departure Airport
Arrival Airport
Navaid (VOR, NDB)
Fix

Horizontal Profiles

Position Reports

Time Latitude Longitude Heading Altitude Ground
Speed
23-Oct-17 19:09 33.941435 -118.384632 259 129ft 0kts
23-Oct-17 19:10 33.941435 -118.384632 259 129ft 0kts
23-Oct-17 19:11 33.941435 -118.384632 259 129ft 0kts
23-Oct-17 19:12 33.941023 -118.383748 133 129ft 11kts
23-Oct-17 19:13 33.940607 -118.380530 136 129ft 0kts
23-Oct-17 19:14 33.940607 -118.380530 136 129ft 0kts
23-Oct-17 19:15 33.940606 -118.380529 136 129ft 0kts
23-Oct-17 19:16 33.939906 -118.380160 208 129ft 5kts
23-Oct-17 19:17 33.939633 -118.382348 263 129ft 51kts
23-Oct-17 19:18 33.938304 -118.408232 261 692ft 95kts
23-Oct-17 19:19 33.932845 -118.439901 248 1297ft 95kts
23-Oct-17 19:20 33.914143 -118.458767 213 1894ft 91kts
23-Oct-17 19:21 33.891181 -118.472482 203 2469ft 99kts
23-Oct-17 19:22 33.866647 -118.491582 212 3075ft 107kts
23-Oct-17 19:23 33.841501 -118.508889 160 3670ft 97kts
23-Oct-17 19:24 33.813682 -118.503658 162 4007ft 113kts
23-Oct-17 19:25 33.781414 -118.497078 162 3986ft 118kts
23-Oct-17 19:26 33.750339 -118.488092 125 3985ft 106kts
23-Oct-17 19:27 33.731315 -118.460689 122 3982ft 109kts
23-Oct-17 19:28 33.713999 -118.431252 103 3983ft 105kts
23-Oct-17 19:29 33.707545 -118.397876 73 3987ft 100kts
23-Oct-17 19:30 33.714588 -118.365055 72 3979ft 101kts
23-Oct-17 19:31 33.722241 -118.332636 72 3984ft 100kts
23-Oct-17 19:32 33.729868 -118.300675 72 3982ft 100kts
23-Oct-17 19:33 33.735709 -118.267548 75 3978ft 101kts
23-Oct-17 19:34 33.741611 -118.234454 78 3982ft 101kts
23-Oct-17 19:35 33.747816 -118.200330 70 3945ft 107kts
23-Oct-17 19:36 33.756412 -118.167784 71 3978ft 100kts
23-Oct-17 19:37 33.768496 -118.138095 58 3981ft 100kts
23-Oct-17 19:38 33.781799 -118.108598 64 3971ft 100kts
23-Oct-17 19:39 33.789188 -118.076169 80 3970ft 102kts
23-Oct-17 19:40 33.787687 -118.043620 61 3979ft 99kts
23-Oct-17 19:41 33.799961 -118.013499 62 3969ft 100kts
23-Oct-17 19:42 33.812081 -117.983402 62 3970ft 100kts
23-Oct-17 19:43 33.824161 -117.953366 62 3970ft 100kts
23-Oct-17 19:44 33.836201 -117.923402 62 3972ft 99kts
23-Oct-17 19:45 33.848343 -117.893191 68 3986ft 100kts
23-Oct-17 19:46 33.861068 -117.861422 72 4004ft 110kts
23-Oct-17 19:47 33.874634 -117.827583 72 4004ft 112kts
23-Oct-17 19:48 33.888283 -117.793491 72 4004ft 113kts
23-Oct-17 19:49 33.902013 -117.759161 73 4015ft 113kts
23-Oct-17 19:50 33.915556 -117.725231 72 4021ft 112kts
23-Oct-17 19:51 33.906085 -117.714395 222 4043ft 112kts
23-Oct-17 19:52 33.882353 -117.737162 201 4014ft 106kts
23-Oct-17 19:53 33.853664 -117.755688 200 3461ft 122kts
23-Oct-17 19:54 33.839280 -117.779737 282 3900ft 109kts
23-Oct-17 19:55 33.850400 -117.817001 282 4011ft 126kts
23-Oct-17 19:56 33.871883 -117.840118 52 4009ft 117kts
23-Oct-17 19:57 33.890662 -117.808627 63 4004ft 116kts
23-Oct-17 19:58 33.909141 -117.776770 63 4004ft 115kts
23-Oct-17 19:59 33.923582 -117.744199 99 4030ft 103kts
23-Oct-17 20:00 33.921297 -117.709956 65 4014ft 114kts
23-Oct-17 20:01 33.951632 -117.694854 27 4041ft 118kts
23-Oct-17 20:02 33.946815 -117.681512 206 3677ft 131kts
23-Oct-17 20:03 33.918631 -117.707671 209 3530ft 120kts
23-Oct-17 20:04 33.893457 -117.731828 209 3456ft 116kts
23-Oct-17 20:05 33.868717 -117.755341 209 3416ft 109kts
23-Oct-17 20:06 33.841799 -117.764446 190 3216ft 113kts
23-Oct-17 20:07 33.812409 -117.781989 199 2810ft 115kts
23-Oct-17 20:08 33.782594 -117.800872 202 2413ft 131kts
23-Oct-17 20:09 33.749511 -117.821851 208 1926ft 138kts
23-Oct-17 20:10 33.721718 -117.840051 209 1391ft 103kts
23-Oct-17 20:11 33.698965 -117.854261 205 567ft 80kts
23-Oct-17 20:12 33.681042 -117.865465 207 79ft 62kts
23-Oct-17 20:13 33.675866 -117.869688 297 59ft 0kts
23-Oct-17 20:14 33.675866 -117.869688 297 59ft 0kts
23-Oct-17 20:15 33.675273 -117.871282 219 59ft 0kts
23-Oct-17 20:16 33.675273 -117.871282 219 59ft 0kts
23-Oct-17 20:17 33.675273 -117.871282 219 59ft 0kts
23-Oct-17 20:18 33.675273 -117.871282 219 59ft 0kts
23-Oct-17 20:19 33.675273 -117.871282 219 59ft 0kts
23-Oct-17 20:20 33.675273 -117.871282 219 59ft 0kts
23-Oct-17 20:21 33.675273 -117.871282 219 59ft 0kts
23-Oct-17 20:22 33.675273 -117.871282 219 59ft 0kts
23-Oct-17 20:23 33.675273 -117.871282 219 59ft 0kts
23-Oct-17 20:24 33.675273 -117.871282 219 59ft 0kts
23-Oct-17 20:25 33.675273 -117.871282 219 59ft 0kts
23-Oct-17 20:26 33.675273 -117.871282 219 59ft 0kts
23-Oct-17 20:27 33.675273 -117.871282 219 59ft 0kts

Navigation Log

Ident Type
Flight plan parsing failed, navigation log unavailable